Radisson, Wisconsin
Current Conditions -  °F | °C
As of 3:53 AM on Tuesday 21 Oct 2014 (Local Time) from KHYR Reporting Station
Overcast Overcast  
Wind Chill: 39°   Ceiling: 2700
Heat Index: 44°   Visibility: 10mi
Dew Point: 36°   Wind: 9mph
Humidity: 73%   Direction: 40°NE
Pressure: 30.16"   Gusts: NA
Location:  45.77°N, 91.22°W
Report Text: KHYR 210853Z AUTO 04008KT 10SM OVC027 07/02 A3016 RMK AO2 SLP222 T00670022 51016
Loading
Personal Weather Stations






























Interactive Weather Map
Tropical Storm Tracking
New forecast layout! Learn more

10-Day Weather Forecast

Advertisements
Track Severe Weather on mobile